KESN/ESN METAR and TAF weather

Enter ICAO airport designator
Station Type Date Time Source
KESN METAR 2020/06/05 10:50 UTC NOAA

KESN 051050Z 17004KT 10SM OVC040 22/21 A2997


Station Type Date Time Source
KESN Decoded METAR 2020/06/05 10:50 UTC NOAA

Easton / Newman Field, MD, United States (KESN) 38-48N 076-04W
Jun 05, 2020 - 06:50 AM EDT / 2020.06.05 1050 UTC
Wind: from the S (170 degrees) at 5 MPH (4 KT):0
Visibility: 10 mile(s):0
Sky conditions: overcast
Temperature: 71 F (22 C)
Dew Point: 69 F (21 C)
Relative Humidity: 94%
Pressure (altimeter): 29.97 in. Hg (1014 hPa)
ob: KESN 051050Z 17004KT 10SM OVC040 22/21 A2997
cycle: 11

Station Type Date Time Source
KESN TAF UTC NOAA

Error!

Example: see airport list